createdAt,value
2023-05-19T00:00:52.573Z,15.3
2023-05-19T00:03:30.413Z,15.4
2023-05-19T00:06:00.838Z,15.4
2023-05-19T00:08:31.935Z,15.3
2023-05-19T00:11:02.573Z,15.4
2023-05-19T00:13:32.782Z,15.3
2023-05-19T00:16:03.348Z,15.3
2023-05-19T00:18:33.997Z,15.3
2023-05-19T00:21:05.845Z,15.4
2023-05-19T00:23:36.398Z,15.2
2023-05-19T00:26:07.081Z,15.3
2023-05-19T00:28:43.919Z,15.2
2023-05-19T00:31:13.951Z,15.3
2023-05-19T00:33:44.539Z,15.3
2023-05-19T00:36:15.066Z,15.3
2023-05-19T00:38:48.767Z,15.3
2023-05-19T00:41:19.226Z,15.3
2023-05-19T00:43:49.770Z,15.2
2023-05-19T00:46:20.987Z,15.3
2023-05-19T00:48:51.248Z,15.3
2023-05-19T00:51:21.770Z,15.2
2023-05-19T00:53:52.687Z,15.2
2023-05-19T00:56:24.136Z,15.2
2023-05-19T00:58:54.464Z,15.2
2023-05-19T01:01:25.107Z,15.3
2023-05-19T01:03:56.387Z,15.2
2023-05-19T01:06:27.684Z,15.3
2023-05-19T01:08:58.145Z,15.3
2023-05-19T01:11:29.161Z,15.2
2023-05-19T01:13:59.836Z,15.2
2023-05-19T01:16:30.671Z,15.2
2023-05-19T01:19:01.801Z,15.2
2023-05-19T01:21:32.584Z,15.1
2023-05-19T01:24:07.473Z,15.2
2023-05-19T01:26:38.191Z,15.1
2023-05-19T01:29:08.667Z,15.2
2023-05-19T01:31:39.115Z,15.3
2023-05-19T01:34:10.620Z,15.2
2023-05-19T01:36:41.468Z,15.2
2023-05-19T01:39:12.237Z,15.3
2023-05-19T01:41:42.815Z,15.3
2023-05-19T01:44:13.911Z,15.3
2023-05-19T01:46:44.751Z,15.3
2023-05-19T01:49:15.183Z,15.3
2023-05-19T01:51:46.039Z,15.3
2023-05-19T01:54:16.988Z,15.2
2023-05-19T01:56:47.510Z,15.1
2023-05-19T01:59:18.416Z,15.2
2023-05-19T02:01:49.299Z,15.2
2023-05-19T02:04:19.915Z,15.2
2023-05-19T02:06:50.817Z,15.2
2023-05-19T02:09:21.867Z,15.2
2023-05-19T02:11:52.382Z,15.3
2023-05-19T02:14:25.618Z,15.3
2023-05-19T02:16:56.812Z,15.3
2023-05-19T02:19:27.268Z,15.3
2023-05-19T02:21:57.358Z,15.2
2023-05-19T02:24:30.062Z,15.2
2023-05-19T02:27:00.575Z,15.2
2023-05-19T02:29:31.126Z,15.2
2023-05-19T02:32:02.576Z,15.1
2023-05-19T02:34:33.887Z,15.2
2023-05-19T02:37:04.728Z,15.1
2023-05-19T02:39:36.181Z,15.3
2023-05-19T02:42:07.691Z,15
2023-05-19T02:44:38.780Z,15.1
2023-05-19T02:47:09.838Z,15.1
2023-05-19T02:49:41.311Z,15.2
2023-05-19T02:52:12.174Z,15.2
2023-05-19T02:54:42.573Z,15.1
2023-05-19T02:57:13.524Z,15.1
2023-05-19T02:59:44.419Z,15.1
2023-05-19T03:02:15.444Z,15.1
2023-05-19T03:04:46.524Z,15.1
2023-05-19T03:07:17.855Z,15.1
2023-05-19T03:09:48.162Z,15.2
2023-05-19T03:12:18.961Z,15.2
2023-05-19T03:14:50.263Z,15.1
2023-05-19T03:17:25.229Z,15.2
2023-05-19T03:19:55.376Z,15.2
2023-05-19T03:22:25.790Z,15.1
2023-05-19T03:24:56.395Z,15.2
2023-05-19T03:27:27.247Z,15.1
2023-05-19T03:29:57.900Z,15.2
2023-05-19T03:32:32.493Z,15.1
2023-05-19T03:35:03.139Z,15.1
2023-05-19T03:37:34.486Z,15.2
2023-05-19T03:40:04.926Z,15.3
2023-05-19T03:42:35.915Z,15.2
2023-05-19T03:45:06.860Z,15.3
2023-05-19T03:47:37.677Z,15.2
2023-05-19T03:50:08.629Z,15.1
2023-05-19T03:52:39.218Z,15.1
2023-05-19T03:55:09.956Z,15.1
2023-05-19T03:57:41.030Z,15.3
2023-05-19T04:00:11.426Z,15.2
2023-05-19T04:02:42.186Z,15.1
2023-05-19T04:05:12.905Z,15.1
2023-05-19T04:07:43.720Z,15.2
2023-05-19T04:10:15.127Z,15.2
2023-05-19T04:12:45.600Z,15.2
2023-05-19T04:15:16.363Z,15.1
2023-05-19T04:17:47.325Z,15.2
2023-05-19T04:20:18.260Z,15.1
2023-05-19T04:22:49.447Z,15.2
2023-05-19T04:25:20.189Z,15.2
2023-05-19T04:27:51.373Z,15.1
2023-05-19T04:30:22.762Z,15.2
2023-05-19T04:32:53.172Z,15.2
2023-05-19T04:35:24.077Z,15.2
2023-05-19T04:37:54.634Z,15.2
2023-05-19T04:40:25.355Z,15.1
2023-05-19T04:42:55.818Z,15.2
2023-05-19T04:45:26.153Z,15.2
2023-05-19T04:47:56.585Z,15.3
2023-05-19T04:50:27.382Z,15.3
2023-05-19T04:52:58.220Z,15.2
2023-05-19T04:55:29.901Z,15.3
2023-05-19T04:58:00.869Z,15.2
2023-05-19T05:00:32.185Z,15.2
2023-05-19T05:03:02.868Z,15.2
2023-05-19T05:05:33.378Z,15.2
2023-05-19T05:08:04.382Z,15.2
2023-05-19T05:10:35.014Z,15.3
2023-05-19T05:13:05.922Z,15.3
2023-05-19T05:15:37.612Z,15.3
2023-05-19T05:18:08.725Z,15.4
2023-05-19T05:20:39.731Z,15.4
2023-05-19T05:23:10.231Z,15.4
2023-05-19T05:25:41.765Z,15.4
2023-05-19T05:28:12.916Z,15.4
2023-05-19T05:30:43.569Z,15.4
2023-05-19T05:33:14.205Z,15.4
2023-05-19T05:35:44.543Z,15.4
2023-05-19T05:38:15.099Z,15.5
2023-05-19T05:40:45.685Z,15.5
2023-05-19T05:43:16.638Z,15.5
2023-05-19T05:45:47.604Z,15.6
2023-05-19T05:48:18.227Z,15.6
2023-05-19T05:50:49.290Z,15.7
2023-05-19T05:53:19.581Z,15.7
2023-05-19T05:55:50.523Z,15.8
2023-05-19T05:58:21.166Z,15.7
2023-05-19T06:00:52.313Z,15.7
2023-05-19T06:03:22.731Z,15.7
2023-05-19T06:05:53.289Z,15.7
2023-05-19T06:08:23.553Z,15.7
2023-05-19T06:10:54.049Z,15.8
2023-05-19T06:13:24.846Z,15.8
2023-05-19T06:15:55.653Z,15.9
2023-05-19T06:18:26.175Z,15.9
2023-05-19T06:20:56.882Z,15.9
2023-05-19T06:23:27.749Z,15.9
2023-05-19T06:25:58.296Z,15.9
2023-05-19T06:28:28.992Z,15.9
2023-05-19T06:31:00.173Z,15.9
2023-05-19T06:33:30.834Z,15.9
2023-05-19T06:36:02.076Z,16
2023-05-19T06:38:33.511Z,16
2023-05-19T06:41:04.268Z,16
2023-05-19T06:43:34.811Z,16
2023-05-19T06:46:05.854Z,16
2023-05-19T06:48:36.815Z,16
2023-05-19T06:51:07.722Z,16
2023-05-19T06:53:38.627Z,16
2023-05-19T06:56:09.370Z,16.1
2023-05-19T06:58:39.874Z,16
2023-05-19T07:01:10.254Z,16.1
2023-05-19T07:03:41.402Z,16.1
2023-05-19T07:06:11.723Z,16.2
2023-05-19T07:08:42.714Z,16.2
2023-05-19T07:11:14.360Z,16.3
2023-05-19T07:13:44.935Z,16.3
2023-05-19T07:16:14.961Z,16.3
2023-05-19T07:18:46.304Z,16.3
2023-05-19T07:21:16.404Z,16.3
2023-05-19T07:23:47.045Z,16.4
2023-05-19T07:26:17.574Z,16.4
2023-05-19T07:28:46.910Z,16.3
2023-05-19T07:31:17.219Z,16.3
2023-05-19T07:33:47.818Z,16.4
2023-05-19T07:36:17.960Z,16.3
2023-05-19T07:38:54.320Z,16.4
2023-05-19T07:41:25.225Z,16.4
2023-05-19T07:43:55.572Z,16.4
2023-05-19T07:46:25.911Z,16.4
2023-05-19T07:48:56.703Z,16.5
2023-05-19T07:51:27.537Z,16.6
2023-05-19T07:53:58.109Z,16.6
2023-05-19T07:56:28.669Z,16.6
2023-05-19T07:58:59.183Z,16.6
2023-05-19T08:01:29.501Z,16.7
2023-05-19T08:04:00.335Z,16.7
2023-05-19T08:06:31.033Z,16.7
2023-05-19T08:09:01.573Z,16.7
2023-05-19T08:11:32.223Z,16.7
2023-05-19T08:14:02.973Z,16.7
2023-05-19T08:16:34.428Z,16.6
2023-05-19T08:19:05.012Z,16.8
2023-05-19T08:21:35.637Z,16.9
2023-05-19T08:24:06.329Z,16.7
2023-05-19T08:26:37.900Z,17
2023-05-19T08:29:07.248Z,17
2023-05-19T08:31:38.281Z,17
2023-05-19T08:34:08.995Z,17.1
2023-05-19T08:36:39.485Z,17.2
2023-05-19T08:39:10.068Z,17.3
2023-05-19T08:41:40.791Z,17.5
2023-05-19T08:44:11.554Z,17.6
2023-05-19T08:46:42.502Z,17.6
2023-05-19T08:49:12.784Z,17.7
2023-05-19T08:51:43.722Z,17.6
2023-05-19T08:54:14.642Z,17.7
2023-05-19T08:56:45.537Z,17.6
2023-05-19T08:59:16.289Z,17.7
2023-05-19T09:01:48.141Z,17.8
2023-05-19T09:04:18.501Z,17.8
2023-05-19T09:06:49.750Z,18
2023-05-19T09:09:20.059Z,18
2023-05-19T09:11:50.913Z,18.1
2023-05-19T09:14:21.856Z,18.1
2023-05-19T09:16:52.498Z,18.2
2023-05-19T09:19:23.319Z,18.1
2023-05-19T09:21:54.406Z,18.2
2023-05-19T09:24:24.801Z,18.3
2023-05-19T09:26:57.907Z,18.4
2023-05-19T09:29:32.124Z,18.3
2023-05-19T09:32:02.902Z,18.4
2023-05-19T09:34:33.911Z,18.4
2023-05-19T09:37:04.775Z,18.4
2023-05-19T09:39:39.892Z,18.4
2023-05-19T09:42:13.985Z,18.5
2023-05-19T09:44:47.240Z,18.3
2023-05-19T09:47:18.165Z,18.3
2023-05-19T09:49:50.774Z,18.3
2023-05-19T09:52:23.929Z,18.1
2023-05-19T09:54:54.575Z,18.3
2023-05-19T09:57:29.093Z,18.3
2023-05-19T10:00:02.886Z,18.3
2023-05-19T10:02:33.694Z,18.4
2023-05-19T10:05:08.352Z,18.4
2023-05-19T10:07:39.251Z,18.4
2023-05-19T10:10:09.671Z,18.5
2023-05-19T10:12:40.737Z,18.5
2023-05-19T10:15:25.123Z,18.6
2023-05-19T10:17:56.251Z,18.7
2023-05-19T10:20:27.666Z,18.8
2023-05-19T10:22:58.813Z,19.2
2023-05-19T10:25:30.804Z,19.5
2023-05-19T10:28:02.003Z,19.5
2023-05-19T10:30:35.017Z,19.5
2023-05-19T10:33:05.233Z,19.5
2023-05-19T10:35:35.658Z,19.6
2023-05-19T10:38:09.580Z,19.7
2023-05-19T10:40:45.308Z,19.9
2023-05-19T10:43:15.033Z,19.9
2023-05-19T10:45:45.480Z,20.1
2023-05-19T10:48:17.309Z,20
2023-05-19T10:50:54.869Z,20
2023-05-19T10:53:25.698Z,20.2
2023-05-19T10:58:36.126Z,20.2
2023-05-19T11:01:10.450Z,20.2
2023-05-19T11:06:13.600Z,20.4
2023-05-19T11:08:44.369Z,20.4
2023-05-19T11:11:15.002Z,20.5
2023-05-19T11:13:47.444Z,20.3
2023-05-19T11:16:25.371Z,20.5
2023-05-19T11:19:00.543Z,20.4
2023-05-19T11:21:36.475Z,20.5
2023-05-19T11:24:07.385Z,20.5
2023-05-19T11:26:37.810Z,20.6
2023-05-19T11:29:08.615Z,20.6
2023-05-19T11:31:41.159Z,20.7
2023-05-19T11:34:12.036Z,20.7
2023-05-19T11:36:41.428Z,20.6
2023-05-19T11:39:10.770Z,20.6
2023-05-19T11:41:43.145Z,20.5
2023-05-19T11:44:18.803Z,20.7
2023-05-19T11:46:49.431Z,20.8
2023-05-19T11:49:22.240Z,20.6
2023-05-19T11:51:53.355Z,20.9
2023-05-19T11:54:24.996Z,21
2023-05-19T11:56:55.509Z,21.3
2023-05-19T11:59:26.556Z,21.4
2023-05-19T12:01:56.854Z,21.6
2023-05-19T12:04:27.542Z,21.6
2023-05-19T12:06:59.147Z,21.4
2023-05-19T12:09:34.919Z,21.3
2023-05-19T12:12:05.234Z,21.1
2023-05-19T12:14:37.006Z,21.1
2023-05-19T12:17:07.793Z,21
2023-05-19T12:19:38.677Z,21.1
2023-05-19T12:22:12.381Z,21.5
2023-05-19T12:24:47.188Z,21.8
2023-05-19T12:27:18.478Z,22.1
2023-05-19T12:29:49.130Z,22
2023-05-19T12:32:19.474Z,22
2023-05-19T12:34:50.131Z,21.9
2023-05-19T12:37:21.008Z,21.9
2023-05-19T12:39:53.110Z,22
2023-05-19T12:42:23.482Z,22.3
2023-05-19T12:44:54.457Z,22.6
2023-05-19T12:47:25.207Z,22.9
2023-05-19T12:49:56.225Z,22.9
2023-05-19T12:52:30.550Z,23
2023-05-19T12:55:01.218Z,23.2
2023-05-19T12:57:33.599Z,23.4
2023-05-19T13:00:04.507Z,23.6
2023-05-19T13:02:38.274Z,23.7
2023-05-19T13:05:10.649Z,23.8
2023-05-19T13:07:41.254Z,23.8
2023-05-19T13:10:13.159Z,23.9
2023-05-19T13:12:43.887Z,24
2023-05-19T13:15:13.810Z,23.8
2023-05-19T13:17:44.592Z,23.6
2023-05-19T13:20:17.188Z,23.5
2023-05-19T13:22:48.391Z,23.3
2023-05-19T13:25:18.625Z,23.1
2023-05-19T13:27:50.672Z,23.1
2023-05-19T13:30:21.534Z,23.1
2023-05-19T13:32:56.340Z,22.9
2023-05-19T13:35:31.102Z,22.7
2023-05-19T13:38:08.256Z,22.5
2023-05-19T13:40:42.635Z,22.5
2023-05-19T13:43:16.170Z,22.6
2023-05-19T13:45:46.550Z,22.7
2023-05-19T13:48:17.462Z,22.8
2023-05-19T13:50:48.478Z,23.1
2023-05-19T13:53:19.148Z,23.3
2023-05-19T13:55:49.756Z,23.2
2023-05-19T13:58:21.106Z,23
2023-05-19T14:00:52.364Z,22.9
2023-05-19T14:03:23.043Z,22.9
2023-05-19T14:05:54.338Z,22.8
2023-05-19T14:08:25.528Z,22.6
2023-05-19T14:11:05.581Z,22.5
2023-05-19T14:13:38.345Z,22.6
2023-05-19T14:16:09.965Z,22.6
2023-05-19T14:18:42.414Z,22.4
2023-05-19T14:21:13.130Z,22.5
2023-05-19T14:23:43.538Z,22.5
2023-05-19T14:26:15.450Z,22.3
2023-05-19T14:28:45.948Z,22.3
2023-05-19T14:31:17.297Z,22.3
2023-05-19T14:33:55.468Z,22.3
2023-05-19T14:36:26.926Z,22
2023-05-19T14:38:57.907Z,22.1
2023-05-19T14:41:28.999Z,22
2023-05-19T14:44:00.170Z,22
2023-05-19T14:46:31.024Z,22
2023-05-19T14:49:02.008Z,21.9
2023-05-19T14:51:34.073Z,22
2023-05-19T14:54:05.344Z,22
2023-05-19T14:56:35.794Z,22
2023-05-19T14:59:06.081Z,22
2023-05-19T15:01:36.748Z,21.9
2023-05-19T15:04:07.233Z,22
2023-05-19T15:06:39.484Z,21.9
2023-05-19T15:09:10.472Z,21.8
2023-05-19T15:11:41.066Z,21.8
2023-05-19T15:14:11.860Z,21.7
2023-05-19T15:16:46.038Z,21.6
2023-05-19T15:19:20.752Z,21.6
2023-05-19T15:21:52.093Z,21.7
2023-05-19T15:24:22.564Z,21.8
2023-05-19T15:26:53.081Z,21.6
2023-05-19T15:29:23.360Z,21.7
2023-05-19T15:31:56.619Z,21.6
2023-05-19T15:34:28.448Z,21.6
2023-05-19T15:37:03.168Z,21.6
2023-05-19T15:39:33.880Z,21.6
2023-05-19T15:42:04.395Z,21.8
2023-05-19T15:44:42.790Z,21.8
2023-05-19T15:47:13.813Z,21.7
2023-05-19T15:49:44.213Z,21.7
2023-05-19T15:52:14.928Z,21.7
2023-05-19T15:54:45.528Z,21.7
2023-05-19T15:57:20.449Z,21.7
2023-05-19T15:59:51.041Z,21.6
2023-05-19T16:02:21.945Z,21.5
2023-05-19T16:04:56.816Z,21.5
2023-05-19T16:07:34.675Z,21.6
2023-05-19T16:10:03.338Z,21.4
2023-05-19T16:12:42.194Z,21.4
2023-05-19T16:15:16.763Z,21.4
2023-05-19T16:17:55.859Z,21.3
2023-05-19T16:20:27.167Z,21.1
2023-05-19T16:23:02.470Z,21.2
2023-05-19T16:25:33.308Z,21.1
2023-05-19T16:28:08.035Z,21.2
2023-05-19T16:30:41.286Z,21.2
2023-05-19T16:33:11.941Z,21.2
2023-05-19T16:35:44.372Z,21.3
2023-05-19T16:38:15.051Z,21.1
2023-05-19T16:40:45.659Z,21.1
2023-05-19T16:43:16.173Z,21.1
2023-05-19T16:45:47.011Z,21.1
2023-05-19T16:48:17.447Z,21
2023-05-19T16:50:51.088Z,21.1
2023-05-19T16:53:21.671Z,20.9
2023-05-19T16:55:52.190Z,21.1
2023-05-19T16:58:22.764Z,21
2023-05-19T17:00:54.377Z,21
2023-05-19T17:03:25.260Z,20.9
2023-05-19T17:05:56.649Z,21
2023-05-19T17:08:27.023Z,20.9
2023-05-19T17:11:01.697Z,20.7
2023-05-19T17:13:33.304Z,20.9
2023-05-19T17:16:06.849Z,20.6
2023-05-19T17:18:40.905Z,20.6
2023-05-19T17:21:18.050Z,20.6
2023-05-19T17:23:49.945Z,20.7
2023-05-19T17:26:21.158Z,20.6
2023-05-19T17:28:56.860Z,20.4
2023-05-19T17:31:32.974Z,20.3
2023-05-19T17:34:03.745Z,20.3
2023-05-19T17:36:43.564Z,20.3
2023-05-19T17:39:14.777Z,20.4
2023-05-19T17:41:45.361Z,20.5
2023-05-19T17:44:18.849Z,20.4
2023-05-19T17:46:50.897Z,20.2
2023-05-19T17:49:26.797Z,20.2
2023-05-19T17:51:59.454Z,20.3
2023-05-19T17:54:34.326Z,20.1
2023-05-19T17:57:08.014Z,20.1
2023-05-19T17:59:38.504Z,20
2023-05-19T18:02:09.133Z,20.1
2023-05-19T18:04:47.075Z,20
2023-05-19T18:07:20.469Z,20
2023-05-19T18:09:51.243Z,20
2023-05-19T18:12:21.851Z,20
2023-05-19T18:14:55.211Z,19.9
2023-05-19T18:17:26.208Z,19.9
2023-05-19T18:19:59.705Z,19.8
2023-05-19T18:22:30.559Z,19.8
2023-05-19T18:25:00.933Z,19.7
2023-05-19T18:27:31.388Z,19.7
2023-05-19T18:30:02.415Z,19.7
2023-05-19T18:32:32.821Z,19.6
2023-05-19T18:35:03.457Z,19.5
2023-05-19T18:37:36.258Z,19.5
2023-05-19T18:40:09.363Z,19.6
2023-05-19T18:42:42.444Z,19.6
2023-05-19T18:45:17.373Z,19.6
2023-05-19T18:47:48.021Z,19.5
2023-05-19T18:50:18.530Z,19.4
2023-05-19T18:52:51.460Z,19.4
2023-05-19T18:55:28.567Z,19.2
2023-05-19T18:58:03.864Z,19.4
2023-05-19T19:00:36.359Z,19.3
2023-05-19T19:03:06.922Z,19.3
2023-05-19T19:05:41.592Z,19.1
2023-05-19T19:08:16.058Z,19.1
2023-05-19T19:10:46.259Z,19.1
2023-05-19T19:13:21.028Z,19.2
2023-05-19T19:15:52.392Z,19.1
2023-05-19T19:18:23.055Z,19.1
2023-05-19T19:20:53.984Z,19
2023-05-19T19:23:24.793Z,19
2023-05-19T19:25:56.045Z,19.1
2023-05-19T19:31:02.911Z,18.9
2023-05-19T19:33:33.266Z,19
2023-05-19T19:36:03.807Z,19
2023-05-19T19:38:35.244Z,18.9
2023-05-19T19:41:05.549Z,18.8
2023-05-19T19:43:36.144Z,18.8
2023-05-19T19:46:08.458Z,18.8
2023-05-19T19:48:43.382Z,18.6
2023-05-19T19:51:15.181Z,18.5
2023-05-19T19:53:46.121Z,18.5
2023-05-19T19:56:22.552Z,18.5
2023-05-19T19:58:58.941Z,18.6
2023-05-19T20:01:28.172Z,18.5
2023-05-19T20:03:58.599Z,18.3
2023-05-19T20:06:32.765Z,18.5
2023-05-19T20:11:38.895Z,18.4
2023-05-19T20:14:10.189Z,18.4
2023-05-19T20:16:43.935Z,18.2
2023-05-19T20:19:16.301Z,18.2
2023-05-19T20:21:57.112Z,18.2
2023-05-19T20:24:39.807Z,18.2
2023-05-19T20:27:09.615Z,18.1
2023-05-19T20:29:42.065Z,18
2023-05-19T20:32:13.889Z,18.1
2023-05-19T20:34:47.163Z,18
2023-05-19T20:39:54.139Z,18
2023-05-19T20:42:25.820Z,18
2023-05-19T20:44:58.184Z,17.9
2023-05-19T20:47:30.494Z,17.9
2023-05-19T20:50:05.509Z,17.9
2023-05-19T20:52:36.468Z,17.9
2023-05-19T20:55:05.433Z,17.8
2023-05-19T20:57:36.209Z,17.7
2023-05-19T21:00:06.788Z,17.7
2023-05-19T21:02:40.726Z,17.8
2023-05-19T21:05:11.765Z,17.8
2023-05-19T21:07:44.620Z,17.8
2023-05-19T21:10:16.077Z,17.8
2023-05-19T21:12:46.394Z,17.8
2023-05-19T21:15:26.281Z,17.7
2023-05-19T21:17:59.090Z,17.8
2023-05-19T21:20:29.864Z,17.7
2023-05-19T21:23:00.611Z,17.7
2023-05-19T21:25:31.085Z,17.7
2023-05-19T21:28:04.367Z,17.5
2023-05-19T21:30:35.190Z,17.6
2023-05-19T21:33:06.133Z,17.4
2023-05-19T21:35:36.978Z,17.4
2023-05-19T21:38:15.949Z,17.5
2023-05-19T21:40:40.252Z,17.3
2023-05-19T21:43:11.011Z,17.4
2023-05-19T21:45:41.896Z,17.2
2023-05-19T21:48:12.748Z,17.2
2023-05-19T21:50:44.036Z,17.2
2023-05-19T21:53:16.420Z,17.2
2023-05-19T21:55:51.486Z,17.3
2023-05-19T21:58:21.948Z,17.2
2023-05-19T22:00:54.086Z,17.3
2023-05-19T22:03:30.024Z,17.1
2023-05-19T22:06:01.126Z,17.2
2023-05-19T22:08:36.775Z,17.2
2023-05-19T22:11:08.056Z,17.1
2023-05-19T22:13:38.711Z,17
2023-05-19T22:16:09.985Z,17
2023-05-19T22:18:41.231Z,17
2023-05-19T22:21:11.640Z,16.8
2023-05-19T22:23:45.888Z,16.9
2023-05-19T22:26:16.526Z,16.8
2023-05-19T22:28:47.330Z,16.8
2023-05-19T22:31:24.607Z,16.7
2023-05-19T22:33:56.130Z,16.8
2023-05-19T22:36:29.722Z,16.7
2023-05-19T22:39:00.354Z,16.5
2023-05-19T22:41:30.866Z,16.6
2023-05-19T22:44:01.575Z,16.7
2023-05-19T22:46:32.069Z,16.6
2023-05-19T22:49:02.999Z,16.6
2023-05-19T22:51:33.426Z,16.5
2023-05-19T22:54:06.041Z,16.4
2023-05-19T22:56:44.301Z,16.4
2023-05-19T22:59:13.925Z,16.5
2023-05-19T23:01:44.874Z,16.5
2023-05-19T23:04:15.611Z,16.4
2023-05-19T23:06:49.646Z,16.4
2023-05-19T23:09:20.411Z,16.2
2023-05-19T23:11:51.722Z,16.2
2023-05-19T23:14:21.695Z,16.2
2023-05-19T23:16:52.787Z,16.1
2023-05-19T23:19:23.831Z,16.1
2023-05-19T23:21:54.462Z,16.1
2023-05-19T23:24:25.093Z,15.9
2023-05-19T23:26:56.848Z,16
2023-05-19T23:29:27.479Z,16.1
2023-05-19T23:31:58.022Z,16
2023-05-19T23:34:28.879Z,15.9
2023-05-19T23:37:00.134Z,15.9
2023-05-19T23:39:31.896Z,15.9
2023-05-19T23:42:03.517Z,16
2023-05-19T23:44:34.765Z,15.9
2023-05-19T23:47:05.288Z,15.9
2023-05-19T23:49:38.864Z,15.9
2023-05-19T23:52:10.239Z,15.9
2023-05-19T23:54:40.953Z,15.9
2023-05-19T23:57:11.614Z,15.9
2023-05-19T23:59:42.628Z,16
